Time;durP1;ratioP1;P1;durP2;ratioP2;P2;SDS_P1;SDS_P2;PMS_P1;PMS_P2;Temp;Humidity;BMP_temperature;BMP_pressure;BME280_temperature;BME280_humidity;BME280_pressure;Samples;Min_cycle;Max_cycle;Signal;HPM_P1;HPM_P2
2024/01/18 00:00:11;;;;;;;22.17;14.30;;;;;;;-0.89;100.00;99310.34;5018042;28;20040;-61
2024/01/18 00:02:36;;;;;;;20.13;14.10;;;;;;;-0.88;100.00;99311.19;5020933;28;20029;-61
2024/01/18 00:05:02;;;;;;;18.02;13.65;;;;;;;-0.89;100.00;99312.13;5018529;28;20022;-62
2024/01/18 00:07:27;;;;;;;23.83;14.85;;;;;;;-0.90;100.00;99315.63;5022144;28;20475;-61
2024/01/18 00:09:52;;;;;;;22.35;14.20;;;;;;;-0.90;100.00;99316.47;5017757;28;20034;-61
2024/01/18 00:12:17;;;;;;;21.73;14.35;;;;;;;-0.91;100.00;99324.41;5021480;28;20435;-61
2024/01/18 00:14:43;;;;;;;23.55;14.15;;;;;;;-0.92;100.00;99331.34;5017714;28;20048;-61
2024/01/18 00:17:08;;;;;;;18.48;13.15;;;;;;;-0.92;100.00;99331.34;5021712;28;20078;-61
2024/01/18 00:19:33;;;;;;;22.77;14.80;;;;;;;-0.94;100.00;99333.22;5017728;28;20053;-60
2024/01/18 00:21:59;;;;;;;21.75;13.73;;;;;;;-0.95;100.00;99353.22;5021257;28;20092;-59
2024/01/18 00:24:24;;;;;;;21.20;14.65;;;;;;;-0.95;100.00;99353.22;5017957;28;20068;-60
2024/01/18 00:26:49;;;;;;;19.27;14.13;;;;;;;-0.95;100.00;99349.75;5020672;28;20060;-60
2024/01/18 00:29:14;;;;;;;22.50;14.50;;;;;;;-0.95;100.00;99355.84;5017586;28;20455;-61
2024/01/18 00:31:40;;;;;;;23.58;15.18;;;;;;;-0.96;100.00;99343.72;5021279;28;20037;-61
2024/01/18 00:34:05;;;;;;;25.83;15.35;;;;;;;-0.97;100.00;99342.00;5017687;28;20108;-61
2024/01/18 00:36:30;;;;;;;19.40;14.27;;;;;;;-0.98;100.00;99342.97;5021072;28;20037;-61
2024/01/18 00:38:56;;;;;;;23.92;14.60;;;;;;;-0.97;100.00;99346.41;5014650;28;20049;-61
2024/01/18 00:41:21;;;;;;;20.67;14.10;;;;;;;-0.97;100.00;99351.59;5020964;28;20025;-61
2024/01/18 00:43:48;;;;;;;21.67;14.10;;;;;;;-0.97;100.00;99357.66;5015412;28;20022;-61
2024/01/18 00:46:13;;;;;;;19.92;14.70;;;;;;;-0.97;100.00;99356.81;5017862;28;20095;-61
2024/01/18 00:48:38;;;;;;;22.17;15.00;;;;;;;-0.97;100.00;99355.03;5016549;28;20440;-61
2024/01/18 00:51:04;;;;;;;22.48;14.65;;;;;;;-0.96;100.00;99354.13;5020103;28;20069;-61
2024/01/18 00:53:29;;;;;;;18.63;13.60;;;;;;;-0.98;100.00;99365.59;5018668;28;20145;-61
2024/01/18 00:55:55;;;;;;;22.60;15.27;;;;;;;-1.00;100.00;99370.88;5012775;28;20849;-61
2024/01/18 00:58:20;;;;;;;19.90;13.88;;;;;;;-0.99;100.00;99374.31;5024323;28;20360;-61
2024/01/18 01:00:47;;;;;;;18.42;14.02;;;;;;;-1.01;100.00;99377.00;5021556;28;20085;-61
2024/01/18 01:03:12;;;;;;;22.13;14.95;;;;;;;-1.01;100.00;99371.78;5021741;28;20025;-60
2024/01/18 01:05:37;;;;;;;24.00;15.20;;;;;;;-1.02;100.00;99377.06;5021634;28;20041;-61
2024/01/18 01:08:03;;;;;;;20.00;14.15;;;;;;;-1.00;100.00;99375.22;5020797;28;20026;-60
2024/01/18 01:10:28;;;;;;;19.50;14.05;;;;;;;-1.01;100.00;99382.22;5021165;28;20026;-61
2024/01/18 01:12:53;;;;;;;20.92;13.35;;;;;;;-1.01;100.00;99379.59;5020137;28;20048;-60
2024/01/18 01:15:18;;;;;;;21.85;14.70;;;;;;;-1.00;100.00;99377.81;5019365;28;20120;-60
2024/01/18 01:17:44;;;;;;;21.15;14.35;;;;;;;-1.01;100.00;99382.22;5016590;28;20388;-61
2024/01/18 01:20:09;;;;;;;25.17;15.02;;;;;;;-1.01;100.00;99386.59;5019784;28;20038;-60
2024/01/18 01:22:35;;;;;;;18.60;13.75;;;;;;;-1.04;100.00;99384.13;5023648;28;20017;-60
2024/01/18 01:25:01;;;;;;;24.40;15.27;;;;;;;-1.04;100.00;99387.56;5020242;28;20048;-60
2024/01/18 01:27:26;;;;;;;20.33;14.70;;;;;;;-1.05;100.00;99387.66;5016481;28;20022;-60
2024/01/18 01:29:51;;;;;;;20.55;14.63;;;;;;;-1.08;100.00;99391.28;5021988;28;20533;-60
2024/01/18 01:32:17;;;;;;;23.33;13.73;;;;;;;-1.08;100.00;99393.88;5023364;28;20061;-61
2024/01/18 01:34:42;;;;;;;20.33;13.90;;;;;;;-1.08;100.00;99403.44;5018561;28;20044;-61
2024/01/18 01:37:07;;;;;;;21.40;13.77;;;;;;;-1.10;100.00;99400.06;5018937;28;20026;-60
2024/01/18 01:39:32;;;;;;;22.70;14.85;;;;;;;-1.10;100.00;99411.34;5018290;28;20021;-61
2024/01/18 01:41:58;;;;;;;21.38;14.75;;;;;;;-1.10;100.00;99415.72;5019688;28;20021;-61
2024/01/18 01:44:23;;;;;;;19.95;14.32;;;;;;;-1.11;100.00;99409.66;5019782;28;20345;-60
2024/01/18 01:46:48;;;;;;;21.75;14.38;;;;;;;-1.11;100.00;99417.50;5015268;28;20032;-60
2024/01/18 01:49:14;;;;;;;19.92;14.82;;;;;;;-1.10;100.00;99410.50;5019972;28;20080;-60
2024/01/18 01:51:48;;;;;;;23.27;14.00;;;;;;;-1.12;100.00;99408.84;5017533;28;20046;-60
2024/01/18 01:54:14;;;;;;;20.15;14.23;;;;;;;-1.12;100.00;99414.03;5020052;28;20025;-60
2024/01/18 01:56:40;;;;;;;20.00;14.48;;;;;;;-1.12;100.00;99421.00;5015521;28;20046;-61
2024/01/18 01:59:09;;;;;;;24.17;14.98;;;;;;;-1.13;100.00;99414.13;5021180;28;20479;-59
2024/01/18 02:01:36;;;;;;;23.23;14.88;;;;;;;-1.12;100.00;99424.47;5021310;28;20486;-60
2024/01/18 02:04:01;;;;;;;21.08;14.55;;;;;;;-1.13;100.00;99417.56;5019052;28;20042;-61
2024/01/18 02:06:29;;;;;;;19.92;14.20;;;;;;;-1.15;100.00;99423.75;5020956;28;20022;-61
2024/01/18 02:08:55;;;;;;;20.58;14.15;;;;;;;-1.14;100.00;99422.84;5018846;28;20064;-61
2024/01/18 02:11:20;;;;;;;24.30;14.50;;;;;;;-1.13;100.00;99414.13;5017522;28;20045;-61
2024/01/18 02:13:46;;;;;;;20.23;14.52;;;;;;;-1.12;100.00;99421.00;5020219;28;20509;-61
2024/01/18 02:16:12;;;;;;;22.17;13.55;;;;;;;-1.11;100.00;99417.50;5009496;28;20033;-60
2024/01/18 02:18:37;;;;;;;19.25;13.85;;;;;;;-1.08;100.00;99425.16;5017458;28;20087;-60
2024/01/18 02:21:04;;;;;;;18.00;13.65;;;;;;;-1.07;100.00;99413.78;5018948;28;20017;-61
2024/01/18 02:23:30;;;;;;;23.92;14.57;;;;;;;-1.03;100.00;99417.06;5011541;28;20064;-61
2024/01/18 02:25:55;;;;;;;21.00;14.00;;;;;;;-1.00;100.00;99409.09;5019201;28;20176;-61
2024/01/18 02:28:21;;;;;;;20.95;14.60;;;;;;;-0.98;100.00;99409.88;5018514;28;20468;-61
2024/01/18 02:30:46;;;;;;;21.70;14.25;;;;;;;-0.96;100.00;99408.03;5014666;28;20034;-61
2024/01/18 02:33:11;;;;;;;18.77;14.20;;;;;;;-0.96;100.00;99416.69;5015883;28;20152;-61
2024/01/18 02:35:37;;;;;;;21.33;13.80;;;;;;;-0.95;100.00;99415.78;5017523;28;20476;-61
2024/01/18 02:38:03;;;;;;;19.20;13.05;;;;;;;-0.93;100.00;99421.75;5020907;28;20120;-61
2024/01/18 02:40:28;;;;;;;19.92;13.68;;;;;;;-0.91;100.00;99429.47;5022002;28;20160;-61
2024/01/18 02:42:54;;;;;;;21.23;14.13;;;;;;;-0.91;100.00;99421.66;5016276;28;20033;-61
2024/01/18 02:45:21;;;;;;;22.75;13.77;;;;;;;-0.89;100.00;99425.03;5018927;28;20486;-61
2024/01/18 02:47:46;;;;;;;18.83;14.48;;;;;;;-0.88;100.00;99425.84;5016598;28;20022;-61
2024/01/18 02:50:11;;;;;;;19.13;13.35;;;;;;;-0.86;100.00;99429.25;5019189;28;20367;-61
2024/01/18 02:52:38;;;;;;;23.48;14.48;;;;;;;-0.87;100.00;99431.00;5016574;28;20093;-59
2024/01/18 02:55:05;;;;;;;22.60;14.52;;;;;;;-0.86;100.00;99429.25;5016743;28;20041;-61
2024/01/18 02:57:31;;;;;;;20.25;13.85;;;;;;;-0.86;100.00;99429.25;5019476;28;20022;-60
2024/01/18 02:59:56;;;;;;;21.27;14.35;;;;;;;-0.84;100.00;99435.22;5019856;28;20033;-60
2024/01/18 03:02:22;;;;;;;20.30;14.75;;;;;;;-0.84;100.00;99436.06;5019182;28;20022;-60
2024/01/18 03:04:47;;;;;;;19.85;13.88;;;;;;;-0.83;100.00;99439.53;5022025;28;20029;-61
2024/01/18 03:07:12;;;;;;;21.65;13.93;;;;;;;-0.83;100.00;99436.91;5015267;28;20541;-61
2024/01/18 03:09:37;;;;;;;22.90;14.23;;;;;;;-0.83;100.00;99442.13;5017286;28;20029;-61
2024/01/18 03:12:03;;;;;;;18.73;14.45;;;;;;;-0.84;100.00;99443.03;5015346;28;20022;-61
2024/01/18 03:14:28;;;;;;;24.98;14.18;;;;;;;-0.84;100.00;99445.66;5014443;28;20083;-61
2024/01/18 03:16:54;;;;;;;19.92;14.00;;;;;;;-0.84;100.00;99437.81;5014580;28;20032;-61
2024/01/18 03:19:19;;;;;;;19.77;14.80;;;;;;;-0.84;100.00;99443.88;5017059;28;20394;-60
2024/01/18 03:21:44;;;;;;;22.27;14.48;;;;;;;-0.84;100.00;99451.69;5016443;28;20030;-61
2024/01/18 03:24:09;;;;;;;18.00;13.48;;;;;;;-0.83;100.00;99449.94;5017766;28;20033;-60
2024/01/18 03:26:35;;;;;;;19.48;13.57;;;;;;;-0.86;100.00;99453.53;5018611;28;20110;-60
2024/01/18 03:29:00;;;;;;;19.77;13.13;;;;;;;-0.86;100.00;99444.91;5022259;28;20467;-60
2024/01/18 03:31:25;;;;;;;22.02;14.40;;;;;;;-0.86;100.00;99450.94;5018414;28;20030;-60
2024/01/18 03:33:50;;;;;;;20.88;13.77;;;;;;;-0.85;100.00;99447.41;5018311;28;20026;-61
2024/01/18 03:36:17;;;;;;;20.08;13.07;;;;;;;-0.85;100.00;99451.78;5013163;28;20080;-60
2024/01/18 03:38:42;;;;;;;19.70;13.60;;;;;;;-0.85;100.00;99452.63;5016343;28;20030;-60
2024/01/18 03:41:07;;;;;;;20.17;14.15;;;;;;;-0.85;100.00;99443.94;5023947;28;20068;-60
2024/01/18 03:43:33;;;;;;;19.27;13.25;;;;;;;-0.87;100.00;99451.84;5025355;28;20526;-60
2024/01/18 03:45:58;;;;;;;21.23;13.68;;;;;;;-0.88;100.00;99454.53;5024077;28;20026;-60
2024/01/18 03:48:23;;;;;;;21.02;14.25;;;;;;;-0.90;100.00;99462.44;5021447;28;20471;-59
2024/01/18 03:50:49;;;;;;;20.40;13.93;;;;;;;-0.89;100.00;99458.91;5019062;28;20029;-60
2024/01/18 03:53:14;;;;;;;23.55;13.80;;;;;;;-0.89;100.00;99471.09;5022351;28;20049;-60
2024/01/18 03:55:39;;;;;;;19.45;13.15;;;;;;;-0.88;100.00;99480.59;5018988;28;20044;-60
2024/01/18 03:58:06;;;;;;;19.73;12.98;;;;;;;-0.89;100.00;99481.53;5022120;28;20144;-60
2024/01/18 04:00:31;;;;;;;21.75;13.48;;;;;;;-0.90;100.00;99478.06;5024546;28;20033;-60
2024/01/18 04:02:57;;;;;;;18.10;13.80;;;;;;;-0.93;100.00;99489.50;5021404;28;20033;-60
2024/01/18 04:05:22;;;;;;;19.33;13.60;;;;;;;-0.94;100.00;99494.78;5021090;28;20026;-60
2024/01/18 04:07:47;;;;;;;19.30;12.95;;;;;;;-0.93;100.00;99486.06;5021443;28;20026;-60
2024/01/18 04:10:13;;;;;;;19.88;13.18;;;;;;;-0.96;100.00;99484.44;5021615;28;20531;-60
2024/01/18 04:12:38;;;;;;;20.77;12.70;;;;;;;-0.98;100.00;99485.47;5022665;28;20036;-60
2024/01/18 04:15:04;;;;;;;19.42;12.95;;;;;;;-1.02;100.00;99484.75;5020521;28;20052;-60
2024/01/18 04:17:29;;;;;;;21.42;13.70;;;;;;;-1.04;100.00;99489.19;5018785;28;20398;-60
2024/01/18 04:19:55;;;;;;;17.05;12.23;;;;;;;-1.04;100.00;99485.75;5020065;28;20361;-60
2024/01/18 04:22:22;;;;;;;20.70;12.90;;;;;;;-1.08;100.00;99489.44;5022558;28;20121;-60
2024/01/18 04:24:48;;;;;;;19.52;12.82;;;;;;;-1.10;100.00;99488.66;5018375;28;20029;-60
2024/01/18 04:27:13;;;;;;;18.45;12.77;;;;;;;-1.13;100.00;99492.28;5021737;28;20034;-60
2024/01/18 04:29:39;;;;;;;21.25;12.55;;;;;;;-1.13;100.00;99498.34;5019174;28;20114;-60
2024/01/18 04:32:04;;;;;;;19.35;11.95;;;;;;;-1.17;100.00;99494.19;5019670;28;20025;-59
2024/01/18 04:34:29;;;;;;;15.50;11.70;;;;;;;-1.17;100.00;99502.00;5017833;28;20029;-59
2024/01/18 04:36:55;;;;;;;16.42;12.02;;;;;;;-1.21;100.00;99500.47;5021036;28;20041;-60
2024/01/18 04:39:20;;;;;;;18.70;11.35;;;;;;;-1.22;100.00;99508.38;5017957;28;20026;-60
2024/01/18 04:41:45;;;;;;;18.63;11.93;;;;;;;-1.26;100.00;99515.50;5019935;28;20037;-59
2024/01/18 04:44:11;;;;;;;17.45;11.75;;;;;;;-1.29;100.00;99514.81;5016904;28;20176;-60
2024/01/18 04:46:36;;;;;;;20.52;12.57;;;;;;;-1.33;100.00;99521.94;5023956;28;20026;-60
2024/01/18 04:49:02;;;;;;;19.38;11.38;;;;;;;-1.35;100.00;99536.75;5016054;28;20026;-60
2024/01/18 04:51:27;;;;;;;16.85;11.43;;;;;;;-1.36;100.00;99540.31;5020028;28;20065;-59
2024/01/18 04:53:53;;;;;;;23.02;12.32;;;;;;;-1.38;100.00;99539.50;5017024;28;20113;-59
2024/01/18 04:56:18;;;;;;;21.67;11.77;;;;;;;-1.42;100.00;99540.59;5019719;28;20044;-58
2024/01/18 04:58:44;;;;;;;17.08;11.27;;;;;;;-1.46;100.00;99555.53;5016483;28;20026;-59
2024/01/18 05:01:09;;;;;;;16.02;10.85;;;;;;;-1.52;100.00;99556.66;5018683;28;20100;-59
2024/01/18 05:03:34;;;;;;;14.55;10.05;;;;;;;-1.57;100.00;99560.41;5017541;28;20450;-59
2024/01/18 05:06:00;;;;;;;16.27;11.25;;;;;;;-1.62;100.00;99568.41;5020267;28;20444;-59
2024/01/18 05:08:25;;;;;;;16.98;10.93;;;;;;;-1.70;100.00;99568.78;5016578;28;20076;-59
2024/01/18 05:10:50;;;;;;;15.60;11.63;;;;;;;-1.75;100.00;99564.69;5016745;28;20568;-59
2024/01/18 05:13:16;;;;;;;17.30;10.68;;;;;;;-1.78;100.00;99559.63;5017644;28;20033;-59
2024/01/18 05:15:41;;;;;;;17.67;11.70;;;;;;;-1.84;100.00;99565.97;5020234;28;20470;-58
2024/01/18 05:18:06;;;;;;;14.15;10.27;;;;;;;-1.89;100.00;99558.38;5016761;28;20030;-58
2024/01/18 05:20:33;;;;;;;14.88;11.43;;;;;;;-1.95;100.00;99557.81;5020618;28;20021;-59
2024/01/18 05:22:58;;;;;;;14.93;10.93;;;;;;;-1.99;100.00;99556.28;5017798;28;20169;-58
2024/01/18 05:25:23;;;;;;;17.83;11.63;;;;;;;-2.02;100.00;99561.59;5020733;28;20483;-57
2024/01/18 05:27:49;;;;;;;14.50;10.63;;;;;;;-2.08;100.00;99560.16;5017155;28;20029;-58
2024/01/18 05:30:14;;;;;;;16.15;11.13;;;;;;;-2.11;100.00;99568.06;5023282;28;20040;-59
2024/01/18 05:32:40;;;;;;;16.95;11.57;;;;;;;-2.16;100.00;99570.03;5020403;28;20069;-59
2024/01/18 05:35:05;;;;;;;13.57;10.35;;;;;;;-2.21;100.00;99571.97;5019453;28;20029;-58
2024/01/18 05:37:31;;;;;;;18.95;10.95;;;;;;;-2.27;100.00;99573.94;5016674;28;20498;-59
2024/01/18 05:39:56;;;;;;;17.13;11.20;;;;;;;-2.30;100.00;99581.03;5020950;28;20025;-56
2024/01/18 05:42:24;;;;;;;16.20;11.48;;;;;;;-2.33;100.00;99592.44;5018480;28;20069;-59
2024/01/18 05:44:50;;;;;;;15.23;10.68;;;;;;;-2.37;100.00;99588.25;5020368;28;20032;-58
2024/01/18 05:47:16;;;;;;;15.05;11.02;;;;;;;-2.43;100.00;99594.59;5016538;28;20463;-58
2024/01/18 05:49:41;;;;;;;17.45;11.00;;;;;;;-2.47;100.00;99595.63;5020840;28;20037;-57
2024/01/18 05:52:07;;;;;;;17.15;11.52;;;;;;;-2.50;100.00;99602.72;5016842;28;20049;-58
2024/01/18 05:54:35;;;;;;;16.75;11.85;;;;;;;-2.57;100.00;99599.53;5020745;28;20065;-55
2024/01/18 05:57:01;;;;;;;15.75;11.00;;;;;;;-2.59;100.00;99606.53;5016183;28;20026;-58
2024/01/18 05:59:28;;;;;;;16.95;11.05;;;;;;;-2.65;100.00;99605.06;5016423;28;20026;-58
2024/01/18 06:01:53;;;;;;;17.60;11.38;;;;;;;-2.68;100.00;99610.38;5021018;28;20038;-58
2024/01/18 06:04:18;;;;;;;15.57;11.18;;;;;;;-2.69;100.00;99618.25;5019211;28;20466;-57
2024/01/18 06:06:44;;;;;;;17.42;11.38;;;;;;;-2.72;100.00;99621.81;5017842;28;20036;-58
2024/01/18 06:09:09;;;;;;;18.17;10.98;;;;;;;-2.74;100.00;99617.59;5020138;28;20022;-58
2024/01/18 06:11:35;;;;;;;15.70;10.65;;;;;;;-2.76;100.00;99621.97;5017843;28;20041;-57
2024/01/18 06:14:00;;;;;;;13.68;10.88;;;;;;;-2.80;100.00;99629.94;5016493;28;20041;-58
2024/01/18 06:16:25;;;;;;;14.85;9.57;;;;;;;-2.84;100.00;99632.72;5022849;28;20161;-58
2024/01/18 06:18:52;;;;;;;15.23;10.32;;;;;;;-2.87;100.00;99646.66;5020052;28;20121;-58
2024/01/18 06:21:17;;;;;;;17.55;9.85;;;;;;;-2.92;100.00;99647.75;5015507;28;20029;-58
2024/01/18 06:23:42;;;;;;;13.55;10.20;;;;;;;-2.95;100.00;99648.72;5016206;28;20022;-56
2024/01/18 06:26:09;;;;;;;14.13;9.85;;;;;;;-2.97;100.00;99660.94;5017720;28;20091;-56
2024/01/18 06:28:34;;;;;;;14.77;10.27;;;;;;;-3.01;100.00;99660.22;5020126;28;20029;-57
2024/01/18 06:31:00;;;;;;;14.30;10.00;;;;;;;-3.05;100.00;99663.84;5017462;28;20036;-59
2024/01/18 06:33:26;;;;;;;13.25;9.52;;;;;;;-3.05;100.00;99663.00;5017203;28;20030;-58
2024/01/18 06:35:52;;;;;;;13.18;9.32;;;;;;;-3.09;100.00;99669.22;5017595;28;20076;-59
2024/01/18 06:38:20;;;;;;;14.45;9.93;;;;;;;-3.11;100.00;99671.88;5018613;28;20021;-59
2024/01/18 06:40:45;;;;;;;17.83;10.55;;;;;;;-3.13;100.00;99671.09;5015768;28;20410;-59
2024/01/18 06:43:11;;;;;;;13.25;9.82;;;;;;;-3.13;100.00;99675.44;5016330;28;21029;-59
2024/01/18 06:45:36;;;;;;;12.70;9.45;;;;;;;-3.17;100.00;99678.13;5020038;28;20025;-57
2024/01/18 06:48:02;;;;;;;15.98;9.95;;;;;;;-3.18;100.00;99679.06;5012724;28;20109;-58
2024/01/18 06:50:27;;;;;;;17.27;10.55;;;;;;;-3.20;100.00;99680.00;5014821;28;20022;-59
2024/01/18 06:52:52;;;;;;;12.93;10.18;;;;;;;-3.23;100.00;99678.41;5015812;28;20416;-58
2024/01/18 06:55:18;;;;;;;21.05;11.00;;;;;;;-3.25;100.00;99693.16;5013293;28;20030;-54
2024/01/18 06:57:48;;;;;;;16.42;10.82;;;;;;;-3.30;100.00;99692.50;5021571;28;20032;-54
2024/01/18 07:00:14;;;;;;;14.90;10.48;;;;;;;-3.30;100.00;99700.28;5018534;28;20041;-58
2024/01/18 07:02:40;;;;;;;16.75;10.05;;;;;;;-3.31;100.00;99697.75;5016903;28;20034;-55
2024/01/18 07:05:06;;;;;;;17.25;11.15;;;;;;;-3.35;100.00;99697.91;5016224;28;20545;-58
2024/01/18 07:07:31;;;;;;;15.35;10.15;;;;;;;-3.36;100.00;99708.34;5011772;28;20068;-58
2024/01/18 07:09:57;;;;;;;17.05;10.35;;;;;;;-3.37;100.00;99711.81;5007811;28;20470;-54
2024/01/18 07:12:24;;;;;;;16.60;10.15;;;;;;;-3.41;100.00;99716.28;5012266;28;20656;-54
2024/01/18 07:14:50;;;;;;;15.50;10.13;;;;;;;-3.45;100.00;99716.44;5021467;28;20033;-54
2024/01/18 07:17:15;;;;;;;17.10;10.90;;;;;;;-3.48;100.00;99713.97;5017783;28;20042;-57
2024/01/18 07:19:41;;;;;;;15.48;10.63;;;;;;;-3.53;100.00;99725.38;5006920;28;20411;-58
2024/01/18 07:22:06;;;;;;;18.15;10.38;;;;;;;-3.60;100.00;99723.88;5021946;28;20033;-59
2024/01/18 07:24:32;;;;;;;17.80;10.07;;;;;;;-3.64;100.00;99730.09;5014093;28;20692;-57
2024/01/18 07:26:57;;;;;;;17.92;11.15;;;;;;;-3.68;100.00;99725.06;5020173;28;20030;-57
2024/01/18 07:29:23;;;;;;;16.63;10.18;;;;;;;-3.74;100.00;99726.16;5022083;28;20026;-58
2024/01/18 07:31:49;;;;;;;15.27;10.02;;;;;;;-3.80;100.00;99740.16;5024778;28;20052;-58
2024/01/18 07:34:16;;;;;;;18.65;11.00;;;;;;;-3.83;100.00;99744.63;5019644;28;20044;-58
2024/01/18 07:36:41;;;;;;;14.45;10.38;;;;;;;-3.88;100.00;99746.53;5020964;28;20068;-58
2024/01/18 07:39:06;;;;;;;16.95;9.63;;;;;;;-3.91;100.00;99744.91;5018021;28;20065;-58
2024/01/18 07:41:32;;;;;;;15.02;10.07;;;;;;;-3.93;100.00;99759.66;5023955;28;20060;-58
2024/01/18 07:43:57;;;;;;;15.00;10.45;;;;;;;-3.97;100.00;99763.28;5017744;28;20635;-58
2024/01/18 07:46:22;;;;;;;18.77;11.10;;;;;;;-4.04;100.00;99760.03;5021869;28;20037;-58
2024/01/18 07:48:47;;;;;;;17.42;10.57;;;;;;;-4.10;100.00;99765.41;5020105;28;20029;-57
2024/01/18 07:51:13;;;;;;;19.08;10.93;;;;;;;-4.13;100.00;99775.91;5021060;28;20014;-56
2024/01/18 07:53:39;;;;;;;16.75;10.77;;;;;;;-4.16;100.00;99771.69;5023343;28;20048;-57
2024/01/18 07:56:04;;;;;;;19.52;11.23;;;;;;;-4.19;100.00;99782.13;5013104;28;20036;-58
2024/01/18 07:58:29;;;;;;;18.45;10.77;;;;;;;-4.21;100.00;99786.53;5019754;28;20029;-57
2024/01/18 08:00:54;;;;;;;17.20;11.48;;;;;;;-4.21;100.00;99794.31;5019356;28;20030;-58
2024/01/18 08:03:20;;;;;;;17.58;11.27;;;;;;;-4.22;100.00;99799.56;5018042;28;20480;-58
2024/01/18 08:05:45;;;;;;;22.45;11.20;;;;;;;-4.24;100.00;99799.59;5023038;28;20029;-59
2024/01/18 08:08:10;;;;;;;19.40;11.10;;;;;;;-4.24;100.00;99809.13;5019468;28;20040;-58
2024/01/18 08:10:36;;;;;;;17.92;11.32;;;;;;;-4.24;100.00;99809.13;5014214;28;20445;-58
2024/01/18 08:13:02;;;;;;;22.42;10.73;;;;;;;-4.26;100.00;99811.78;5018606;28;20025;-57
2024/01/18 08:15:27;;;;;;;18.33;12.10;;;;;;;-4.28;100.00;99817.00;5019694;28;20462;-58
2024/01/18 08:17:53;;;;;;;16.35;12.10;;;;;;;-4.29;100.00;99817.06;5017673;28;20039;-59
2024/01/18 08:20:19;;;;;;;22.58;11.43;;;;;;;-4.30;100.00;99823.13;5018568;28;20163;-58
2024/01/18 08:22:44;;;;;;;16.75;11.82;;;;;;;-4.32;100.00;99828.34;5017128;28;20100;-58
2024/01/18 08:25:10;;;;;;;20.08;11.43;;;;;;;-4.32;100.00;99836.13;5019418;28;20113;-58
2024/01/18 08:27:40;;;;;;;19.70;11.85;;;;;;;-4.32;100.00;99836.13;5017725;28;20084;-58
2024/01/18 08:30:06;;;;;;;17.70;11.38;;;;;;;-4.31;100.00;99840.44;5021561;28;20398;-58
2024/01/18 08:32:34;;;;;;;21.40;11.20;;;;;;;-4.32;100.00;99845.66;5022074;28;20101;-57
2024/01/18 08:35:03;;;;;;;17.08;11.80;;;;;;;-4.31;100.00;99847.38;5021880;28;20045;-58
2024/01/18 08:37:28;;;;;;;16.90;11.75;;;;;;;-4.29;100.00;99848.16;5022273;28;20116;-58
2024/01/18 08:39:54;;;;;;;21.45;12.88;;;;;;;-4.28;100.00;99855.03;5018479;28;20597;-57
2024/01/18 08:42:19;;;;;;;22.35;12.38;;;;;;;-4.25;100.00;99856.69;5020403;28;20120;-56
2024/01/18 08:44:45;;;;;;;15.70;10.80;;;;;;;-4.24;100.00;99861.81;5019728;28;20079;-56
2024/01/18 08:47:12;;;;;;;21.42;11.88;;;;;;;-4.23;100.00;99863.53;5015769;28;20067;-54
2024/01/18 08:49:38;;;;;;;18.70;11.43;;;;;;;-4.20;100.00;99870.34;5022583;28;20536;-55
2024/01/18 08:52:03;;;;;;;19.00;11.82;;;;;;;-4.16;100.00;99862.44;5019829;28;20085;-56
2024/01/18 08:54:28;;;;;;;17.67;12.10;;;;;;;-4.09;100.00;99866.50;5023293;28;20478;-58
2024/01/18 08:56:54;;;;;;;20.50;12.50;;;;;;;-4.02;100.00;99872.34;5017413;28;20044;-57
2024/01/18 08:59:20;;;;;;;16.92;12.48;;;;;;;-3.96;100.00;99874.75;5017918;28;20041;-58
2024/01/18 09:01:45;;;;;;;19.48;11.40;;;;;;;-3.87;100.00;99885.72;5017905;28;20788;-57
2024/01/18 09:04:11;;;;;;;16.95;11.38;;;;;;;-3.79;100.00;99894.13;5019579;28;20057;-57
2024/01/18 09:06:37;;;;;;;17.83;12.30;;;;;;;-3.69;100.00;99900.69;5022449;28;20017;-58
2024/01/18 09:09:02;;;;;;;18.17;11.63;;;;;;;-3.60;100.00;99902.13;5021358;28;20034;-56
2024/01/18 09:11:29;;;;;;;17.48;11.65;;;;;;;-3.49;100.00;99900.03;5022491;28;20107;-56
2024/01/18 09:13:54;;;;;;;17.80;12.30;;;;;;;-3.37;100.00;99906.53;5016680;28;20025;-59
2024/01/18 09:16:19;;;;;;;16.20;11.85;;;;;;;-3.26;100.00;99907.03;5016069;28;20048;-57
2024/01/18 09:18:44;;;;;;;16.73;11.60;;;;;;;-3.20;100.00;99911.16;5019130;28;20467;-58
2024/01/18 09:21:10;;;;;;;18.10;10.98;;;;;;;-3.10;100.00;99912.50;5013328;28;20707;-57
2024/01/18 09:23:36;;;;;;;18.08;10.15;;;;;;;-3.02;100.00;99920.88;5019104;28;20025;-57
2024/01/18 09:26:01;;;;;;;18.17;11.05;;;;;;;-2.89;100.00;99925.66;5017045;28;20045;-59
2024/01/18 09:28:27;;;;;;;17.13;9.88;;;;;;;-2.82;100.00;99930.56;5014080;28;20030;-58
2024/01/18 09:30:53;;;;;;;16.65;9.15;;;;;;;-2.73;100.00;99928.53;5019123;28;20026;-58
2024/01/18 09:33:18;;;;;;;16.45;9.43;;;;;;;-2.61;100.00;99939.34;5021881;28;20601;-58
2024/01/18 09:35:44;;;;;;;17.02;9.52;;;;;;;-2.43;100.00;99936.97;5016133;28;20042;-59
2024/01/18 09:38:10;;;;;;;14.43;9.95;;;;;;;-2.28;100.00;99954.59;5018129;28;20056;-60
2024/01/18 09:40:36;;;;;;;18.15;9.35;;;;;;;-2.16;100.00;99958.47;5018759;28;20018;-58
2024/01/18 09:43:07;;;;;;;16.63;9.48;;;;;;;-2.06;100.00;99962.41;5016130;28;20021;-56
2024/01/18 09:45:39;;;;;;;14.57;9.15;;;;;;;-1.93;100.00;99961.94;5016438;28;20022;-58
2024/01/18 09:48:04;;;;;;;13.57;8.10;;;;;;;-1.78;100.00;99971.75;5020645;28;20079;-58
2024/01/18 09:50:32;;;;;;;14.80;8.63;;;;;;;-1.65;100.00;99979.91;5019267;28;20461;-57
2024/01/18 09:52:57;;;;;;;11.95;7.50;;;;;;;-1.49;100.00;99987.97;5020072;28;20041;-58
2024/01/18 09:55:23;;;;;;;13.35;6.97;;;;;;;-1.37;100.00;99987.44;5014683;28;20040;-59
2024/01/18 09:57:54;;;;;;;11.77;7.43;;;;;;;-1.26;100.00;99991.41;5012222;28;20068;-58
2024/01/18 10:00:23;;;;;;;9.63;6.93;;;;;;;-1.15;100.00;99992.63;5015760;28;20038;-57
2024/01/18 10:02:50;;;;;;;11.57;6.70;;;;;;;-1.04;100.00;99993.94;5019830;28;20076;-58
2024/01/18 10:05:15;;;;;;;6.90;5.78;;;;;;;-0.93;100.00;100004.75;5018184;28;20029;-60
2024/01/18 10:07:41;;;;;;;8.75;6.40;;;;;;;-0.79;100.00;100010.22;5020967;28;20021;-57
2024/01/18 10:10:08;;;;;;;11.07;6.35;;;;;;;-0.63;100.00;100022.63;5017393;28;20055;-59
2024/01/18 10:12:35;;;;;;;8.25;5.88;;;;;;;-0.51;100.00;100024.66;5019300;28;20146;-58
2024/01/18 10:15:00;;;;;;;12.95;6.15;;;;;;;-0.38;100.00;100033.66;5016960;28;20040;-59
2024/01/18 10:17:27;;;;;;;13.95;6.97;;;;;;;-0.29;100.00;100036.78;5019135;28;20025;-58
2024/01/18 10:19:56;;;;;;;10.00;5.05;;;;;;;-0.20;100.00;100037.22;5020058;28;20489;-59
2024/01/18 10:22:22;;;;;;;11.30;5.22;;;;;;;-0.07;100.00;100036.63;5011611;28;20030;-57
2024/01/18 10:24:47;;;;;;;10.80;5.57;;;;;;;0.01;100.00;100041.53;5018206;28;20387;-58
2024/01/18 10:27:13;;;;;;;7.75;5.18;;;;;;;0.08;100.00;100046.38;5018264;28;20029;-59
2024/01/18 10:29:38;;;;;;;14.00;5.30;;;;;;;0.17;100.00;100048.56;5015357;28;20042;-57
2024/01/18 10:32:06;;;;;;;9.13;5.32;;;;;;;0.26;100.00;100052.50;5022160;28;20109;-58
2024/01/18 10:34:35;;;;;;;11.70;5.32;;;;;;;0.36;100.00;100063.38;5014411;28;20060;-58
2024/01/18 10:37:01;;;;;;;12.18;5.18;;;;;;;0.44;100.00;100066.47;5014521;28;20030;-58
2024/01/18 10:39:26;;;;;;;8.05;4.97;;;;;;;0.53;100.00;100059.97;5019959;28;20104;-58
2024/01/18 10:41:51;;;;;;;8.98;5.03;;;;;;;0.58;100.00;100055.38;5013912;28;20045;-57
2024/01/18 10:44:17;;;;;;;10.80;5.55;;;;;;;0.66;100.00;100066.31;5014716;28;20415;-57
2024/01/18 10:46:43;;;;;;;7.22;5.60;;;;;;;0.73;100.00;100062.50;5014531;28;20157;-56
2024/01/18 10:49:10;;;;;;;7.40;4.88;;;;;;;0.80;100.00;100062.19;5021582;28;20029;-57
2024/01/18 10:51:39;;;;;;;10.77;5.40;;;;;;;0.96;100.00;100073.56;5019130;28;20046;-54
2024/01/18 10:54:09;;;;;;;;;;;;;;;1.02;100.00;100075.91;5021554;28;20021;-56
2024/01/18 10:56:34;;;;;;;6.63;4.63;;;;;;;1.08;100.00;100069.50;5019021;28;19917;-56
2024/01/18 10:59:00;;;;;;;9.68;5.60;;;;;;;1.16;100.00;100069.13;5022327;28;20560;-56
2024/01/18 11:01:25;;;;;;;9.52;4.72;;;;;;;1.24;100.00;100075.66;5022197;28;20033;-57
2024/01/18 11:03:52;;;;;;;7.30;4.90;;;;;;;1.34;100.00;100077.84;5019861;28;20108;-56